createdAt,value
2022-09-20T00:01:24.195Z,101117.31
2022-09-20T00:03:53.055Z,101122.38
2022-09-20T00:06:21.509Z,101117.13
2022-09-20T00:08:48.650Z,101115.31
2022-09-20T00:11:18.397Z,101110.81
2022-09-20T00:13:46.428Z,101124.69
2022-09-20T00:16:24.273Z,101122.78
2022-09-20T00:18:52.356Z,101125.38
2022-09-20T00:21:21.861Z,101118.41
2022-09-20T00:23:48.314Z,101120.06
2022-09-20T00:26:14.778Z,101120.00
2022-09-20T00:28:41.881Z,101124.25
2022-09-20T00:31:08.276Z,101127.69
2022-09-20T00:33:53.200Z,101132.81
2022-09-20T00:36:19.589Z,101128.41
2022-09-20T00:38:45.971Z,101124.81
2022-09-20T00:41:12.464Z,101125.66
2022-09-20T00:43:44.379Z,101131.66
2022-09-20T00:46:20.797Z,101135.88
2022-09-20T00:48:48.539Z,101139.28
2022-09-20T00:51:18.051Z,101140.94
2022-09-20T00:53:47.639Z,101132.03
2022-09-20T00:56:17.774Z,101133.66
2022-09-20T00:58:47.222Z,101135.31
2022-09-20T01:01:13.750Z,101137.81
2022-09-20T01:03:42.137Z,101131.50
2022-09-20T01:06:12.081Z,101133.16
2022-09-20T01:08:39.695Z,101131.38
2022-09-20T01:11:06.169Z,101133.94
2022-09-20T01:13:32.597Z,101132.09
2022-09-20T01:16:00.406Z,101142.47
2022-09-20T01:18:27.641Z,101138.88
2022-09-20T01:20:54.634Z,101136.28
2022-09-20T01:23:34.717Z,101142.28
2022-09-20T01:26:27.069Z,101141.25
2022-09-20T01:29:09.397Z,101141.94
2022-09-20T01:31:43.364Z,101141.06
2022-09-20T01:34:29.793Z,101140.13
2022-09-20T01:37:05.345Z,101133.09
2022-09-20T01:39:40.185Z,101144.31
2022-09-20T01:42:09.445Z,101144.31
2022-09-20T01:44:49.360Z,101142.53
2022-09-20T01:47:37.425Z,101146.84
2022-09-20T01:50:15.504Z,101138.97
2022-09-20T01:53:01.407Z,101145.78
2022-09-20T01:56:10.322Z,101137.06
2022-09-20T01:59:23.549Z,101143.06
2022-09-20T02:01:53.351Z,101145.66
2022-09-20T02:04:59.845Z,101144.84
2022-09-20T02:07:44.087Z,101136.19
2022-09-20T02:10:35.399Z,101151.88
2022-09-20T02:13:10.874Z,101146.69
2022-09-20T02:15:57.020Z,101146.75
2022-09-20T02:19:00.854Z,101152.03
2022-09-20T02:21:54.834Z,101152.03
2022-09-20T02:24:41.187Z,101149.50
2022-09-20T02:27:24.308Z,101160.00
2022-09-20T02:30:13.220Z,101168.72
2022-09-20T02:33:25.089Z,101161.81
2022-09-20T02:35:58.700Z,101166.25
2022-09-20T02:38:57.526Z,101162.00
2022-09-20T02:41:35.970Z,101165.59
2022-09-20T02:44:28.589Z,101163.00
2022-09-20T02:47:17.331Z,101170.91
2022-09-20T02:50:19.942Z,101165.72
2022-09-20T02:53:16.561Z,101165.72
2022-09-20T02:56:03.690Z,101164.81
2022-09-20T02:59:00.393Z,101163.94
2022-09-20T03:01:39.693Z,101171.72
2022-09-20T03:04:22.350Z,101170.91
2022-09-20T03:07:00.993Z,101169.13
2022-09-20T03:09:43.512Z,101172.56
2022-09-20T03:12:34.238Z,101176.09
2022-09-20T03:15:14.263Z,101179.63
2022-09-20T03:17:50.606Z,101179.63
2022-09-20T03:20:27.545Z,101178.00
2022-09-20T03:23:10.796Z,101180.66
2022-09-20T03:25:52.266Z,101184.13
2022-09-20T03:28:38.648Z,101188.38
2022-09-20T03:31:27.164Z,101190.03
2022-09-20T03:34:09.682Z,101189.91
2022-09-20T03:36:49.324Z,101187.25
2022-09-20T03:39:39.934Z,101194.03
2022-09-20T03:42:17.865Z,101190.50
2022-09-20T03:45:17.761Z,101193.16
2022-09-20T03:48:23.525Z,101193.03
2022-09-20T03:51:18.754Z,101198.09
2022-09-20T03:54:03.968Z,101205.88
2022-09-20T03:56:52.047Z,101203.28
2022-09-20T03:59:29.408Z,101193.78
2022-09-20T04:02:07.194Z,101201.50
2022-09-20T04:04:41.946Z,101202.28
2022-09-20T04:07:26.427Z,101196.94
2022-09-20T04:10:03.726Z,101207.47
2022-09-20T04:12:40.953Z,101208.34
2022-09-20T04:15:13.331Z,101209.28
2022-09-20T04:17:52.517Z,101211.91
2022-09-20T04:20:24.961Z,101208.34
2022-09-20T04:22:52.287Z,101206.63
2022-09-20T04:25:22.305Z,101211.91
2022-09-20T04:27:56.482Z,101211.91
2022-09-20T04:30:30.118Z,101205.00
2022-09-20T04:33:01.695Z,101210.25
2022-09-20T04:36:22.656Z,101220.63
2022-09-20T04:39:17.874Z,101212.78
2022-09-20T04:41:53.124Z,101217.97
2022-09-20T04:44:45.915Z,101220.63
2022-09-20T04:47:25.386Z,101225.00
2022-09-20T04:50:30.277Z,101227.72
2022-09-20T04:53:14.884Z,101232.03
2022-09-20T04:56:10.438Z,101228.59
2022-09-20T04:58:49.668Z,101233.84
2022-09-20T05:01:35.620Z,101240.84
2022-09-20T05:04:26.238Z,101242.53
2022-09-20T05:06:58.840Z,101239.88
2022-09-20T05:09:50.118Z,101237.22
2022-09-20T05:12:35.507Z,101247.47
2022-09-20T05:15:09.403Z,101250.06
2022-09-20T05:17:38.796Z,101249.16
2022-09-20T05:20:43.837Z,101251.84
2022-09-20T05:23:36.379Z,101255.31
2022-09-20T05:26:13.001Z,101262.41
2022-09-20T05:28:49.648Z,101260.91
2022-09-20T05:31:38.116Z,101254.97
2022-09-20T05:34:15.092Z,101262.75
2022-09-20T05:37:09.473Z,101266.38
2022-09-20T05:39:37.013Z,101271.44
2022-09-20T05:42:18.333Z,101273.31
2022-09-20T05:45:07.808Z,101270.91
2022-09-20T05:47:50.304Z,101266.50
2022-09-20T05:50:36.375Z,101277.09
2022-09-20T05:53:41.675Z,101275.38
2022-09-20T05:56:32.814Z,101273.63
2022-09-20T05:59:46.795Z,101277.28
2022-09-20T06:02:42.557Z,101277.41
2022-09-20T06:05:14.182Z,101278.44
2022-09-20T06:07:52.463Z,101283.75
2022-09-20T06:10:31.572Z,101279.50
2022-09-20T06:13:43.029Z,101285.66
2022-09-20T06:16:15.377Z,101284.94
2022-09-20T06:19:16.813Z,101289.31
2022-09-20T06:21:55.012Z,101285.00
2022-09-20T06:24:39.372Z,101284.06
2022-09-20T06:27:10.382Z,101288.59
2022-09-20T06:29:40.860Z,101288.66
2022-09-20T06:32:08.246Z,101297.38
2022-09-20T06:34:35.179Z,101294.84
2022-09-20T06:37:36.980Z,101308.72
2022-09-20T06:40:48.851Z,101304.41
2022-09-20T06:43:16.044Z,101315.00
2022-09-20T06:45:42.810Z,101308.03
2022-09-20T06:48:13.207Z,101314.25
2022-09-20T06:50:40.006Z,101316.34
2022-09-20T06:53:06.643Z,101312.25
2022-09-20T06:55:37.467Z,101322.38
2022-09-20T06:58:04.222Z,101327.06
2022-09-20T07:00:30.700Z,101324.66
2022-09-20T07:02:57.238Z,101324.78
2022-09-20T07:05:24.409Z,101327.53
2022-09-20T07:07:50.799Z,101326.81
2022-09-20T07:10:17.229Z,101324.34
2022-09-20T07:12:43.632Z,101334.81
2022-09-20T07:15:10.217Z,101329.66
2022-09-20T07:17:36.637Z,101339.25
2022-09-20T07:20:03.442Z,101344.44
2022-09-20T07:22:29.838Z,101343.88
2022-09-20T07:24:56.257Z,101349.19
2022-09-20T07:27:24.725Z,101350.91
2022-09-20T07:29:54.024Z,101352.63
2022-09-20T07:32:20.415Z,101357.81
2022-09-20T07:34:47.002Z,101362.97
2022-09-20T07:37:13.951Z,101359.59
2022-09-20T07:39:40.361Z,101361.66
2022-09-20T07:42:08.077Z,101356.75
2022-09-20T07:44:34.469Z,101363.97
2022-09-20T07:47:01.201Z,101361.66
2022-09-20T07:49:30.264Z,101359.41
2022-09-20T07:51:56.805Z,101372.69
2022-09-20T07:54:23.223Z,101366.44
2022-09-20T07:56:49.613Z,101371.84
2022-09-20T07:59:16.250Z,101370.56
2022-09-20T08:01:42.808Z,101376.88
2022-09-20T08:04:09.938Z,101382.06
2022-09-20T08:06:37.957Z,101382.44
2022-09-20T08:09:08.981Z,101385.25
2022-09-20T08:11:39.408Z,101395.00
2022-09-20T08:14:07.522Z,101395.00
2022-09-20T08:16:39.330Z,101400.44
2022-09-20T08:19:05.789Z,101394.53
2022-09-20T08:21:33.587Z,101397.13
2022-09-20T08:24:00.201Z,101397.97
2022-09-20T08:26:28.304Z,101408.22
2022-09-20T08:28:56.738Z,101410.16
2022-09-20T08:31:26.602Z,101411.25
2022-09-20T08:33:54.157Z,101400.94
2022-09-20T08:36:23.901Z,101411.56
2022-09-20T08:41:57.519Z,101407.72
2022-09-20T08:44:36.621Z,101412.81
2022-09-20T08:47:05.568Z,101417.13
2022-09-20T08:49:32.381Z,101417.97
2022-09-20T08:51:59.199Z,101418.06
2022-09-20T08:54:32.026Z,101417.34
2022-09-20T08:57:05.261Z,101421.63
2022-09-20T08:59:32.066Z,101415.63
2022-09-20T09:01:59.814Z,101421.72
2022-09-20T09:04:34.541Z,101415.78
2022-09-20T09:07:01.023Z,101423.50
2022-09-20T09:09:28.920Z,101425.41
2022-09-20T09:11:56.973Z,101425.41
2022-09-20T09:14:48.244Z,101430.69
2022-09-20T09:17:32.733Z,101439.59
2022-09-20T09:20:28.726Z,101437.94
2022-09-20T09:23:08.894Z,101427.09
2022-09-20T09:25:39.510Z,101433.34
2022-09-20T09:28:08.877Z,101429.94
2022-09-20T09:30:47.520Z,101425.63
2022-09-20T09:33:20.002Z,101435.44
2022-09-20T09:35:53.880Z,101436.38
2022-09-20T09:38:24.147Z,101439.06
2022-09-20T09:40:56.274Z,101439.31
2022-09-20T09:43:28.521Z,101442.28
2022-09-20T09:45:56.987Z,101439.78
2022-09-20T09:48:30.566Z,101445.19
2022-09-20T09:51:15.354Z,101439.28
2022-09-20T09:53:42.725Z,101439.59
2022-09-20T09:56:30.942Z,101435.38
2022-09-20T09:59:30.685Z,101437.25
2022-09-20T10:02:13.041Z,101440.09
2022-09-20T10:04:51.657Z,101440.88
2022-09-20T10:07:35.678Z,101435.94
2022-09-20T10:10:41.351Z,101442.16
2022-09-20T10:13:35.973Z,101446.53
2022-09-20T10:16:32.335Z,101442.47
2022-09-20T10:19:08.532Z,101447.94
2022-09-20T10:21:52.225Z,101448.88
2022-09-20T10:24:30.467Z,101447.06
2022-09-20T10:26:59.801Z,101444.63
2022-09-20T10:29:41.861Z,101448.16
2022-09-20T10:32:40.189Z,101449.97
2022-09-20T10:35:16.003Z,101438.56
2022-09-20T10:38:04.007Z,101444.03
2022-09-20T10:41:16.883Z,101443.22
2022-09-20T10:44:05.362Z,101441.63
2022-09-20T10:46:53.743Z,101435.84
2022-09-20T10:49:50.382Z,101443.69
2022-09-20T10:52:46.789Z,101440.31
2022-09-20T10:55:31.891Z,101447.34
2022-09-20T10:58:15.997Z,101448.28
2022-09-20T11:01:02.179Z,101458.19
2022-09-20T11:03:37.798Z,101458.41
2022-09-20T11:06:15.957Z,101453.25
2022-09-20T11:08:43.308Z,101461.19
2022-09-20T11:11:12.406Z,101458.72
2022-09-20T11:14:00.037Z,101459.59
2022-09-20T11:16:38.269Z,101454.38
2022-09-20T11:19:16.792Z,101463.84
2022-09-20T11:21:48.365Z,101461.91
2022-09-20T11:24:35.105Z,101457.94
2022-09-20T11:27:14.466Z,101457.03
2022-09-20T11:29:46.839Z,101457.03
2022-09-20T11:32:27.436Z,101455.28
2022-09-20T11:35:10.590Z,101466.78
2022-09-20T11:37:43.585Z,101457.97
2022-09-20T11:40:22.522Z,101457.25
2022-09-20T11:42:50.076Z,101450.53
2022-09-20T11:45:16.633Z,101452.53
2022-09-20T11:47:55.704Z,101446.50
2022-09-20T11:50:56.714Z,101449.97
2022-09-20T11:53:37.016Z,101451.63
2022-09-20T11:56:10.710Z,101455.91
2022-09-20T11:58:48.169Z,101450.97
2022-09-20T12:01:16.457Z,101454.59
2022-09-20T12:03:50.652Z,101453.72
2022-09-20T12:06:33.244Z,101452.84
2022-09-20T12:09:03.522Z,101446.88
2022-09-20T12:11:36.071Z,101456.59
2022-09-20T12:14:07.217Z,101450.75
2022-09-20T12:16:42.205Z,101448.22
2022-09-20T12:19:36.290Z,101452.69
2022-09-20T12:22:05.335Z,101448.28
2022-09-20T12:24:34.131Z,101444.09
2022-09-20T12:27:02.807Z,101438.91
2022-09-20T12:29:32.910Z,101451.09
2022-09-20T12:32:05.349Z,101436.41
2022-09-20T12:34:36.508Z,101438.28
2022-09-20T12:37:04.637Z,101437.50
2022-09-20T12:39:36.024Z,101440.88
2022-09-20T12:42:03.697Z,101435.94
2022-09-20T12:44:32.222Z,101447.47
2022-09-20T12:47:02.521Z,101441.91
2022-09-20T12:49:51.533Z,101439.41
2022-09-20T12:52:57.067Z,101441.00
2022-09-20T12:55:33.050Z,101443.41
2022-09-20T12:58:16.702Z,101445.34
2022-09-20T13:01:04.417Z,101442.91
2022-09-20T13:03:39.731Z,101442.97
2022-09-20T13:06:06.202Z,101446.50
2022-09-20T13:08:36.607Z,101443.13
2022-09-20T13:11:13.542Z,101440.69
2022-09-20T13:13:44.589Z,101450.25
2022-09-20T13:16:20.047Z,101439.69
2022-09-20T13:18:47.337Z,101443.06
2022-09-20T13:21:13.796Z,101436.28
2022-09-20T13:23:48.285Z,101445.97
2022-09-20T13:26:16.030Z,101445.97
2022-09-20T13:28:54.531Z,101447.56
2022-09-20T13:31:20.904Z,101455.31
2022-09-20T13:33:50.469Z,101452.91
2022-09-20T13:36:24.684Z,101446.06
2022-09-20T13:38:51.318Z,101443.50
2022-09-20T13:41:17.974Z,101446.25
2022-09-20T13:43:46.381Z,101441.19
2022-09-20T13:46:32.928Z,101439.50
2022-09-20T13:49:12.977Z,101429.09
2022-09-20T13:51:39.465Z,101431.00
2022-09-20T13:54:22.026Z,101436.28
2022-09-20T13:56:49.474Z,101441.56
2022-09-20T13:59:19.495Z,101434.59
2022-09-20T14:01:51.653Z,101442.47
2022-09-20T14:04:23.778Z,101435.50
2022-09-20T14:06:51.904Z,101438.13
2022-09-20T14:09:39.189Z,101439.97
2022-09-20T14:12:06.159Z,101440.09
2022-09-20T14:14:34.222Z,101444.50
2022-09-20T14:17:01.862Z,101448.88
2022-09-20T14:19:33.515Z,101447.09
2022-09-20T14:22:04.465Z,101442.84
2022-09-20T14:24:35.293Z,101447.50
2022-09-20T14:27:15.011Z,101446.66
2022-09-20T14:30:04.542Z,101449.38
2022-09-20T14:32:50.703Z,101449.31
2022-09-20T14:35:19.428Z,101451.03
2022-09-20T14:37:48.904Z,101456.28
2022-09-20T14:40:24.498Z,101450.34
2022-09-20T14:43:00.633Z,101453.78
2022-09-20T14:45:30.803Z,101454.00
2022-09-20T14:48:06.871Z,101453.16
2022-09-20T14:50:39.844Z,101450.53
2022-09-20T14:53:21.479Z,101452.25
2022-09-20T14:56:09.068Z,101443.56
2022-09-20T14:59:09.326Z,101457.69
2022-09-20T15:01:37.561Z,101452.66
2022-09-20T15:04:09.468Z,101459.88
2022-09-20T15:06:38.915Z,101457.38
2022-09-20T15:09:05.568Z,101453.06
2022-09-20T15:11:32.117Z,101458.28
2022-09-20T15:13:58.510Z,101462.66
2022-09-20T15:16:24.950Z,101467.06
2022-09-20T15:18:51.396Z,101456.75
2022-09-20T15:21:17.894Z,101464.69
2022-09-20T15:23:44.317Z,101462.13
2022-09-20T15:26:13.211Z,101471.09
2022-09-20T15:28:40.238Z,101469.34
2022-09-20T15:31:06.769Z,101474.53
2022-09-20T15:33:33.505Z,101470.84
2022-09-20T15:36:02.097Z,101481.38
2022-09-20T15:38:28.638Z,101478.72
2022-09-20T15:40:55.089Z,101477.00
2022-09-20T15:43:24.235Z,101479.50
2022-09-20T15:45:52.899Z,101477.78
2022-09-20T15:48:21.790Z,101478.56
2022-09-20T15:51:07.882Z,101486.41
2022-09-20T15:53:36.870Z,101475.72
2022-09-20T15:56:05.589Z,101490.50
2022-09-20T15:58:36.106Z,101483.44
2022-09-20T16:01:05.903Z,101491.19
2022-09-20T16:03:32.717Z,101491.97
2022-09-20T16:06:04.119Z,101503.13
2022-09-20T16:08:36.326Z,101498.66
2022-09-20T16:11:03.144Z,101491.53
2022-09-20T16:13:29.949Z,101494.97
2022-09-20T16:15:58.076Z,101499.19
2022-09-20T16:18:43.486Z,101500.72
2022-09-20T16:21:12.379Z,101507.47
2022-09-20T16:23:39.870Z,101503.91
2022-09-20T16:26:06.927Z,101505.59
2022-09-20T16:28:33.362Z,101510.72
2022-09-20T16:31:00.080Z,101518.53
2022-09-20T16:33:26.525Z,101510.56
2022-09-20T16:35:52.929Z,101521.84
2022-09-20T16:38:19.352Z,101518.31
2022-09-20T16:40:51.411Z,101520.75
2022-09-20T16:43:23.934Z,101516.19
2022-09-20T16:45:59.286Z,101526.47
2022-09-20T16:48:31.189Z,101521.97
2022-09-20T16:50:59.040Z,101533.19
2022-09-20T16:53:26.326Z,101528.72
2022-09-20T16:55:55.691Z,101532.06
2022-09-20T16:58:29.725Z,101538.81
2022-09-20T17:01:06.260Z,101532.47
2022-09-20T17:03:34.102Z,101536.72
2022-09-20T17:06:03.601Z,101550.47
2022-09-20T17:08:30.003Z,101538.97
2022-09-20T17:11:01.114Z,101551.06
2022-09-20T17:13:32.898Z,101556.16
2022-09-20T17:16:01.110Z,101552.44
2022-09-20T17:18:27.686Z,101552.25
2022-09-20T17:20:54.065Z,101553.81
2022-09-20T17:23:21.048Z,101561.50
2022-09-20T17:25:48.136Z,101562.22
2022-09-20T17:28:14.706Z,101563.75
2022-09-20T17:30:41.125Z,101564.44
2022-09-20T17:33:07.517Z,101572.13
2022-09-20T17:35:33.904Z,101564.13
2022-09-20T17:38:00.302Z,101570.97
2022-09-20T17:40:26.853Z,101575.16
2022-09-20T17:42:55.161Z,101579.38
2022-09-20T17:45:21.541Z,101589.66
2022-09-20T17:47:47.928Z,101589.50
2022-09-20T17:50:15.308Z,101591.03
2022-09-20T17:52:42.180Z,101595.28
2022-09-20T17:55:08.683Z,101595.16
2022-09-20T17:57:35.081Z,101596.69
2022-09-20T18:00:01.972Z,101607.09
2022-09-20T18:02:28.377Z,101611.31
2022-09-20T18:04:54.782Z,101612.03
2022-09-20T18:07:21.170Z,101618.94
2022-09-20T18:09:47.668Z,101622.22
2022-09-20T18:12:18.889Z,101622.03
2022-09-20T18:14:47.280Z,101623.69
2022-09-20T18:17:13.698Z,101632.19
2022-09-20T18:19:41.142Z,101636.44
2022-09-20T18:22:07.546Z,101637.19
2022-09-20T18:24:33.973Z,101644.00
2022-09-20T18:27:04.463Z,101642.97
2022-09-20T18:29:36.417Z,101638.47
2022-09-20T18:32:02.933Z,101643.56
2022-09-20T18:34:33.975Z,101646.00
2022-09-20T18:37:01.331Z,101648.41
2022-09-20T18:39:30.946Z,101650.84
2022-09-20T18:41:57.386Z,101659.44
2022-09-20T18:44:24.225Z,101664.44
2022-09-20T18:46:54.900Z,101666.88
2022-09-20T18:49:21.759Z,101664.09
2022-09-20T18:51:48.824Z,101664.72
2022-09-20T18:54:15.500Z,101670.59
2022-09-20T18:56:43.952Z,101674.84
2022-09-20T18:59:21.842Z,101670.25
2022-09-20T19:01:55.819Z,101670.97
2022-09-20T19:04:46.706Z,101673.34
2022-09-20T19:07:16.036Z,101681.00
2022-09-20T19:10:19.417Z,101671.16
2022-09-20T19:13:05.016Z,101691.03
2022-09-20T19:15:41.020Z,101680.50
2022-09-20T19:18:25.650Z,101680.41
2022-09-20T19:20:59.359Z,101689.00
2022-09-20T19:24:05.850Z,101686.25
2022-09-20T19:26:38.039Z,101690.53
2022-09-20T19:29:16.674Z,101693.06
2022-09-20T19:31:43.298Z,101693.00
2022-09-20T19:34:18.176Z,101693.72
2022-09-20T19:37:19.871Z,101702.38
2022-09-20T19:40:14.047Z,101698.75
2022-09-20T19:43:03.561Z,101703.81
2022-09-20T19:45:57.756Z,101719.31
2022-09-20T19:48:40.860Z,101722.75
2022-09-20T19:51:11.612Z,101725.19
2022-09-20T19:53:39.213Z,101715.59
2022-09-20T19:56:27.755Z,101724.22
2022-09-20T19:58:56.267Z,101722.31
2022-09-20T20:01:24.171Z,101721.38
2022-09-20T20:03:51.809Z,101721.28
2022-09-20T20:06:38.952Z,101731.63
2022-09-20T20:09:36.463Z,101726.25
2022-09-20T20:12:02.743Z,101729.63
2022-09-20T20:14:41.249Z,101736.53
2022-09-20T20:17:33.445Z,101730.38
2022-09-20T20:20:06.057Z,101732.00
2022-09-20T20:23:04.433Z,101728.28
2022-09-20T20:25:50.094Z,101731.72
2022-09-20T20:28:16.470Z,101737.75
2022-09-20T20:30:42.881Z,101740.22
2022-09-20T20:33:16.059Z,101743.50
2022-09-20T20:35:42.551Z,101739.06
2022-09-20T20:38:10.552Z,101744.97
2022-09-20T20:40:37.734Z,101744.72
2022-09-20T20:43:06.089Z,101754.16
2022-09-20T20:45:32.550Z,101749.78
2022-09-20T20:47:59.239Z,101753.19
2022-09-20T20:50:27.003Z,101763.53
2022-09-20T20:52:54.204Z,101761.81
2022-09-20T20:55:20.600Z,101765.16
2022-09-20T20:57:57.983Z,101760.78
2022-09-20T21:00:25.608Z,101762.28
2022-09-20T21:02:59.741Z,101761.25
2022-09-20T21:05:28.026Z,101764.41
2022-09-20T21:07:54.948Z,101758.88
2022-09-20T21:10:22.261Z,101762.13
2022-09-20T21:12:50.303Z,101757.53
2022-09-20T21:15:20.047Z,101766.91
2022-09-20T21:17:53.123Z,101773.81
2022-09-20T21:20:20.314Z,101770.31
2022-09-20T21:22:46.731Z,101777.28
2022-09-20T21:25:13.172Z,101779.06
2022-09-20T21:27:39.606Z,101773.88
2022-09-20T21:30:06.600Z,101774.69
2022-09-20T21:32:32.982Z,101781.66
2022-09-20T21:34:59.471Z,101782.56
2022-09-20T21:37:25.893Z,101777.44
2022-09-20T21:39:54.372Z,101783.53
2022-09-20T21:42:20.768Z,101781.81
2022-09-20T21:44:47.169Z,101789.63
2022-09-20T21:47:20.476Z,101785.31
2022-09-20T21:49:47.615Z,101784.41
2022-09-20T21:52:14.470Z,101795.69
2022-09-20T21:54:40.885Z,101795.69
2022-09-20T21:57:07.382Z,101801.72
2022-09-20T21:59:33.760Z,101800.75
2022-09-20T22:02:00.170Z,101800.69
2022-09-20T22:04:29.132Z,101802.31
2022-09-20T22:06:55.581Z,101799.72
2022-09-20T22:09:24.025Z,101797.94
2022-09-20T22:11:50.676Z,101803.13
2022-09-20T22:14:19.354Z,101802.97
2022-09-20T22:16:46.994Z,101803.78
2022-09-20T22:19:14.993Z,101808.84
2022-09-20T22:21:46.727Z,101814.78
2022-09-20T22:24:14.172Z,101813.81
2022-09-20T22:26:45.725Z,101807.53
2022-09-20T22:29:12.257Z,101810.81
2022-09-20T22:31:46.732Z,101818.47
2022-09-20T22:34:18.054Z,101818.31
2022-09-20T22:36:44.494Z,101810.25
2022-09-20T22:39:12.433Z,101817.03
2022-09-20T22:41:40.972Z,101816.06
2022-09-20T22:44:07.578Z,101811.53
2022-09-20T22:46:34.385Z,101808.75
2022-09-20T22:49:01.063Z,101805.09
2022-09-20T22:51:33.558Z,101800.72
2022-09-20T22:54:00.752Z,101799.84
2022-09-20T22:56:31.098Z,101804.06
2022-09-20T22:59:01.976Z,101805.78
2022-09-20T23:01:47.799Z,101815.13
2022-09-20T23:04:16.545Z,101808.81
2022-09-20T23:06:44.930Z,101813.03
2022-09-20T23:09:12.917Z,101815.56
2022-09-20T23:11:41.863Z,101815.41
2022-09-20T23:14:10.912Z,101821.34
2022-09-20T23:16:37.704Z,101826.34
2022-09-20T23:19:05.654Z,101831.38
2022-09-20T23:21:32.809Z,101830.41
2022-09-20T23:24:01.236Z,101826.94
2022-09-20T23:26:29.810Z,101818.91
2022-09-20T23:29:07.401Z,101822.31
2022-09-20T23:31:36.413Z,101825.81
2022-09-20T23:34:04.532Z,101828.41
2022-09-20T23:36:32.457Z,101824.03
2022-09-20T23:38:58.979Z,101830.03
2022-09-20T23:41:26.791Z,101824.66
2022-09-20T23:43:53.643Z,101825.47
2022-09-20T23:46:21.461Z,101831.47
2022-09-20T23:48:48.122Z,101820.13
2022-09-20T23:51:16.781Z,101829.63
2022-09-20T23:53:43.659Z,101822.56
2022-09-20T23:56:11.108Z,101838.88
2022-09-20T23:58:38.803Z,101834.38
